Ninepoints, Pennsylvania
Current Conditions -  °F | °C
As of 10:55 PM on Sunday 23 Nov 2014 (Local Time) from KMQS Reporting Station
Light Rain Light Rain  
Wind Chill: 52°   Ceiling: 500
Heat Index: 52°   Visibility: 8mi
Dew Point: 52°   Wind: 8mph
Humidity: 100%   Direction: 140°SE
Pressure: 29.94"   Gusts: 18mph
Location:  39.9118°N, 76.0265°W
Report Text: KMQS 240355Z AUTO 14007G16KT 090V170 8SM -RA BKN005 OVC018 11/11 A2994 RMK AO2
Loading
Personal Weather Stations






























Interactive Weather Map New forecast layout! Learn more

10-Day Weather Forecast

Advertisements
Track Severe Weather on mobile